Time;durP1;ratioP1;P1;durP2;ratioP2;P2;SDS_P1;SDS_P2;PMS_P1;PMS_P2;Temp;Humidity;BMP_temperature;BMP_pressure;BME280_temperature;BME280_humidity;BME280_pressure;Samples;Min_cycle;Max_cycle;Signal;HPM_P1;HPM_P2
2021/09/24 00:00:23;;;;;;;15.40;11.35;;;;;;;;;;5073738;28;20437;-90
2021/09/24 00:02:51;;;;;;;14.77;11.47;;;;;;;;;;5069650;28;20429;-89
2021/09/24 00:05:18;;;;;;;15.45;11.55;;;;;;;;;;5078065;28;20743;-89
2021/09/24 00:07:46;;;;;;;14.93;11.80;;;;;;;;;;5082198;28;20420;-90
2021/09/24 00:10:14;;;;;;;17.05;12.32;;;;;;;;;;5081872;28;20400;-90
2021/09/24 00:12:41;;;;;;;17.65;11.90;;;;;;;;;;5069525;28;20398;-89
2021/09/24 00:15:12;;;;;;;17.13;13.00;;;;;;;;;;5083634;28;20514;-89
2021/09/24 00:17:39;;;;;;;14.85;12.18;;;;;;;;;;5070607;28;20409;-88
2021/09/24 00:20:09;;;;;;;16.27;13.05;;;;;;;;;;5083177;28;20408;-90
2021/09/24 00:22:36;;;;;;;16.95;13.50;;;;;;;;;;5070885;28;20413;-89
2021/09/24 00:25:03;;;;;;;16.17;13.70;;;;;;;;;;5073279;28;20433;-89
2021/09/24 00:27:30;;;;;;;15.32;12.88;;;;;;;;;;5086544;28;20424;-90
2021/09/24 00:29:57;;;;;;;16.73;13.82;;;;;;;;;;5072176;28;20413;-89
2021/09/24 00:32:25;;;;;;;17.75;13.48;;;;;;;;;;5069298;28;20433;-89
2021/09/24 00:34:52;;;;;;;16.23;14.27;;;;;;;;;;5081517;28;20404;-89
2021/09/24 00:37:19;;;;;;;18.05;14.45;;;;;;;;;;5080825;28;20411;-89
2021/09/24 00:39:46;;;;;;;17.13;14.60;;;;;;;;;;5081660;28;20413;-89
2021/09/24 00:42:13;;;;;;;18.17;14.88;;;;;;;;;;5077979;28;20414;-89
2021/09/24 00:44:41;;;;;;;19.27;14.52;;;;;;;;;;5077879;28;20438;-89
2021/09/24 00:47:09;;;;;;;16.35;13.60;;;;;;;;;;5075978;28;20481;-89
2021/09/24 00:49:37;;;;;;;18.92;13.93;;;;;;;;;;5076094;28;20412;-89
2021/09/24 00:52:05;;;;;;;19.00;14.35;;;;;;;;;;5080024;28;20409;-89
2021/09/24 00:54:32;;;;;;;17.95;13.93;;;;;;;;;;5076672;28;20406;-89
2021/09/24 00:57:01;;;;;;;17.33;14.55;;;;;;;;;;5078838;28;20419;-89
2021/09/24 00:59:28;;;;;;;16.70;14.88;;;;;;;;;;5075809;28;20407;-88
2021/09/24 01:01:55;;;;;;;18.35;14.38;;;;;;;;;;5075865;28;20749;-90
2021/09/24 01:04:22;;;;;;;18.07;15.10;;;;;;;;;;5071294;28;20394;-89
2021/09/24 01:06:51;;;;;;;17.50;14.25;;;;;;;;;;5076656;28;20409;-89
2021/09/24 01:09:18;;;;;;;18.30;15.20;;;;;;;;;;5074661;28;20404;-89
2021/09/24 01:11:45;;;;;;;18.17;14.80;;;;;;;;;;5076900;28;20400;-89
2021/09/24 01:14:12;;;;;;;16.67;14.30;;;;;;;;;;5075472;28;20629;-90
2021/09/24 01:16:39;;;;;;;19.67;15.40;;;;;;;;;;5075072;28;20416;-89
2021/09/24 01:19:06;;;;;;;17.33;13.95;;;;;;;;;;5077203;28;20415;-89
2021/09/24 01:21:36;;;;;;;17.10;15.02;;;;;;;;;;5075429;28;20398;-90
2021/09/24 01:24:03;;;;;;;17.30;15.35;;;;;;;;;;5077137;28;20499;-89
2021/09/24 01:26:30;;;;;;;18.40;14.77;;;;;;;;;;5083920;28;20398;-89
2021/09/24 01:28:58;;;;;;;18.80;14.55;;;;;;;;;;5070889;28;20938;-89
2021/09/24 01:31:25;;;;;;;18.08;14.27;;;;;;;;;;5076033;28;20400;-89
2021/09/24 01:33:52;;;;;;;16.52;13.13;;;;;;;;;;5072953;28;20397;-89
2021/09/24 01:36:19;;;;;;;16.25;13.20;;;;;;;;;;5072222;28;20405;-90
2021/09/24 01:38:57;;;;;;;17.75;13.13;;;;;;;;;;5068582;28;20402;-90
2021/09/24 01:44:29;;;;;;;17.17;13.32;;;;;;;;;;5047695;28;20529;-89
2021/09/24 01:46:56;;;;;;;15.52;13.38;;;;;;;;;;5069391;28;20947;-90
2021/09/24 01:49:23;;;;;;;16.10;13.32;;;;;;;;;;5080288;28;20416;-90
2021/09/24 01:51:50;;;;;;;15.70;13.32;;;;;;;;;;5088234;28;20419;-91
2021/09/24 01:54:22;;;;;;;16.67;14.02;;;;;;;;;;5085729;28;20412;-90
2021/09/24 01:57:05;;;;;;;17.88;13.40;;;;;;;;;;5080330;28;20405;-91
2021/09/24 01:59:31;;;;;;;17.40;13.32;;;;;;;;;;5071500;28;20406;-90
2021/09/24 02:01:59;;;;;;;14.85;12.82;;;;;;;;;;5068024;28;20398;-90
2021/09/24 02:04:26;;;;;;;15.10;12.70;;;;;;;;;;5067805;28;20397;-90
2021/09/24 02:06:52;;;;;;;16.63;12.45;;;;;;;;;;5068179;28;20406;-90
2021/09/24 02:09:21;;;;;;;17.42;12.77;;;;;;;;;;5068168;28;20409;-90
2021/09/24 02:11:48;;;;;;;16.02;13.00;;;;;;;;;;5068183;28;20421;-90
2021/09/24 02:14:15;;;;;;;17.17;12.93;;;;;;;;;;5067706;28;20394;-89
2021/09/24 02:16:42;;;;;;;15.20;12.97;;;;;;;;;;5068398;28;20409;-90
2021/09/24 02:19:08;;;;;;;16.67;12.87;;;;;;;;;;5067851;28;20402;-90
2021/09/24 02:21:54;;;;;;;17.23;12.90;;;;;;;;;;5067327;28;20405;-90
2021/09/24 02:24:22;;;;;;;16.08;13.07;;;;;;;;;;5047766;28;20447;-90
2021/09/24 02:26:49;;;;;;;15.95;12.93;;;;;;;;;;5056361;28;20751;-91
2021/09/24 02:29:16;;;;;;;15.23;13.63;;;;;;;;;;5068162;28;20398;-90
2021/09/24 02:31:43;;;;;;;16.95;13.23;;;;;;;;;;5067343;28;20480;-90
2021/09/24 02:34:10;;;;;;;17.83;14.15;;;;;;;;;;5067813;28;20401;-90
2021/09/24 02:36:38;;;;;;;17.88;14.15;;;;;;;;;;5068086;28;20413;-91
2021/09/24 02:39:07;;;;;;;18.95;14.05;;;;;;;;;;5068637;28;20723;-90
2021/09/24 02:41:35;;;;;;;17.17;14.85;;;;;;;;;;5068167;28;20869;-90
2021/09/24 02:44:02;;;;;;;17.75;14.68;;;;;;;;;;5068775;28;20417;-90
2021/09/24 02:46:29;;;;;;;16.80;13.80;;;;;;;;;;5068761;28;20402;-89
2021/09/24 02:48:56;;;;;;;18.63;15.43;;;;;;;;;;5068445;28;20410;-90
2021/09/24 02:51:23;;;;;;;18.25;15.45;;;;;;;;;;5069319;28;20421;-90
2021/09/24 02:53:50;;;;;;;20.70;15.20;;;;;;;;;;5070493;28;20418;-91
2021/09/24 02:56:17;;;;;;;19.17;15.45;;;;;;;;;;5086376;28;20395;-90
2021/09/24 02:58:45;;;;;;;18.23;15.43;;;;;;;;;;5086631;28;20400;-90
2021/09/24 03:01:12;;;;;;;20.13;15.90;;;;;;;;;;5066977;28;20924;-90
2021/09/24 03:03:39;;;;;;;18.75;14.85;;;;;;;;;;5067597;28;20413;-90
2021/09/24 03:06:06;;;;;;;17.85;14.75;;;;;;;;;;5071264;28;20406;-90
2021/09/24 03:08:33;;;;;;;17.05;14.90;;;;;;;;;;5071194;28;20414;-89
2021/09/24 03:11:00;;;;;;;17.23;14.63;;;;;;;;;;5071237;28;20414;-90
2021/09/24 03:13:27;;;;;;;17.75;14.13;;;;;;;;;;5071465;28;20405;-90
2021/09/24 03:15:55;;;;;;;16.77;14.32;;;;;;;;;;5071785;28;20398;-90
2021/09/24 03:18:22;;;;;;;16.95;14.88;;;;;;;;;;5071191;28;20402;-90
2021/09/24 03:20:52;;;;;;;16.80;14.10;;;;;;;;;;5071042;28;20445;-90
2021/09/24 03:23:19;;;;;;;16.90;13.73;;;;;;;;;;5072122;28;20449;-90
2021/09/24 03:25:47;;;;;;;16.57;14.43;;;;;;;;;;5071010;28;20398;-90
2021/09/24 03:28:14;;;;;;;20.95;14.38;;;;;;;;;;5071063;28;20409;-90
2021/09/24 03:30:41;;;;;;;16.05;13.27;;;;;;;;;;5056644;28;20972;-90
2021/09/24 03:33:10;;;;;;;15.48;13.20;;;;;;;;;;5051156;28;20406;-90
2021/09/24 03:35:37;;;;;;;15.38;13.60;;;;;;;;;;5050831;28;20956;-89
2021/09/24 03:38:05;;;;;;;16.40;13.80;;;;;;;;;;5051167;28;21141;-89
2021/09/24 03:40:32;;;;;;;17.02;14.30;;;;;;;;;;5079744;28;20753;-90
2021/09/24 03:42:59;;;;;;;15.88;13.45;;;;;;;;;;5078450;28;20410;-90
2021/09/24 03:45:28;;;;;;;17.20;13.30;;;;;;;;;;5070599;28;20481;-89
2021/09/24 03:47:55;;;;;;;17.40;14.07;;;;;;;;;;5070692;28;20406;-89
2021/09/24 03:50:24;;;;;;;16.33;13.55;;;;;;;;;;5070298;28;20916;-89
2021/09/24 03:52:52;;;;;;;17.43;14.00;;;;;;;;;;5070665;28;20501;-90
2021/09/24 03:55:19;;;;;;;18.13;13.55;;;;;;;;;;5069004;28;20906;-90
2021/09/24 03:57:47;;;;;;;17.15;12.98;;;;;;;;;;5070407;28;20410;-88
2021/09/24 04:00:15;;;;;;;15.35;12.98;;;;;;;;;;5068974;28;20406;-89
2021/09/24 04:02:42;;;;;;;15.70;13.15;;;;;;;;;;5069360;28;20414;-89
2021/09/24 04:05:10;;;;;;;16.25;13.25;;;;;;;;;;5050742;28;20404;-89
2021/09/24 04:07:39;;;;;;;15.95;12.93;;;;;;;;;;5087624;28;20400;-89
2021/09/24 04:10:06;;;;;;;15.48;13.27;;;;;;;;;;5083886;28;20421;-90
2021/09/24 04:12:33;;;;;;;17.45;13.48;;;;;;;;;;5074836;28;20425;-90
2021/09/24 04:15:01;;;;;;;14.32;12.82;;;;;;;;;;5077624;28;20412;-90
2021/09/24 04:17:28;;;;;;;15.10;12.73;;;;;;;;;;5076011;28;20412;-90
2021/09/24 04:19:54;;;;;;;14.68;12.65;;;;;;;;;;5070779;28;20901;-90
2021/09/24 04:22:21;;;;;;;16.90;13.55;;;;;;;;;;5070025;28;20414;-90
2021/09/24 04:24:50;;;;;;;16.05;12.70;;;;;;;;;;5085719;28;20420;-90
2021/09/24 04:27:17;;;;;;;17.70;13.25;;;;;;;;;;5068840;28;20418;-90
2021/09/24 04:29:44;;;;;;;16.08;12.93;;;;;;;;;;5072075;28;20413;-90
2021/09/24 04:32:11;;;;;;;14.67;12.90;;;;;;;;;;5073232;28;20897;-90
2021/09/24 04:34:38;;;;;;;18.50;14.85;;;;;;;;;;5071887;28;20394;-90
2021/09/24 04:37:05;;;;;;;18.58;14.40;;;;;;;;;;5086555;28;20393;-90
2021/09/24 04:39:32;;;;;;;17.27;13.35;;;;;;;;;;5075213;28;20422;-90
2021/09/24 04:42:01;;;;;;;17.33;13.20;;;;;;;;;;5076232;28;20404;-90
2021/09/24 04:44:27;;;;;;;16.27;13.02;;;;;;;;;;5075254;28;20424;-90
2021/09/24 04:47:18;;;;;;;19.23;13.85;;;;;;;;;;5071178;28;20394;-90
2021/09/24 04:49:44;;;;;;;16.40;13.73;;;;;;;;;;5071664;28;20486;-91
2021/09/24 04:52:11;;;;;;;14.93;12.97;;;;;;;;;;5075366;28;20396;-90
2021/09/24 04:54:38;;;;;;;15.40;13.07;;;;;;;;;;5077334;28;20412;-90
2021/09/24 04:57:07;;;;;;;17.45;13.40;;;;;;;;;;5073111;28;20410;-90
2021/09/24 04:59:34;;;;;;;15.95;13.05;;;;;;;;;;5072960;28;20409;-91
2021/09/24 05:02:00;;;;;;;14.60;12.70;;;;;;;;;;5069968;28;20394;-91
2021/09/24 05:04:27;;;;;;;16.73;13.35;;;;;;;;;;5075405;28;20416;-91
2021/09/24 05:06:54;;;;;;;16.77;12.25;;;;;;;;;;5070327;28;20416;-91
2021/09/24 05:09:21;;;;;;;14.07;11.85;;;;;;;;;;5072204;28;20733;-90
2021/09/24 05:11:50;;;;;;;16.75;12.98;;;;;;;;;;5072536;28;20423;-91
2021/09/24 05:14:18;;;;;;;14.25;12.23;;;;;;;;;;5079173;28;20408;-90
2021/09/24 05:16:45;;;;;;;13.93;11.57;;;;;;;;;;5070278;28;20754;-91
2021/09/24 05:19:12;;;;;;;15.77;12.05;;;;;;;;;;5075410;28;20410;-90
2021/09/24 05:21:39;;;;;;;18.17;13.05;;;;;;;;;;5071285;28;20417;-89
2021/09/24 05:24:06;;;;;;;16.33;12.10;;;;;;;;;;5086771;28;20423;-91
2021/09/24 05:26:34;;;;;;;14.00;11.97;;;;;;;;;;5085330;28;20404;-90
2021/09/24 05:29:01;;;;;;;17.33;13.23;;;;;;;;;;5077161;28;20409;-89
2021/09/24 05:31:30;;;;;;;16.55;12.60;;;;;;;;;;5073565;28;20523;-90
2021/09/24 05:33:57;;;;;;;19.25;14.68;;;;;;;;;;5075694;28;20396;-90
2021/09/24 05:36:24;;;;;;;14.15;11.98;;;;;;;;;;5075143;28;20404;-88
2021/09/24 05:38:51;;;;;;;16.67;12.70;;;;;;;;;;5076109;28;20396;-89
2021/09/24 05:41:18;;;;;;;18.95;12.65;;;;;;;;;;5075799;28;20408;-90
2021/09/24 05:43:47;;;;;;;18.00;12.68;;;;;;;;;;5077106;28;20435;-90
2021/09/24 05:46:14;;;;;;;15.45;12.88;;;;;;;;;;5073764;28;20410;-90
2021/09/24 05:48:43;;;;;;;17.30;12.90;;;;;;;;;;5072957;28;20390;-90
2021/09/24 05:51:10;;;;;;;18.65;13.95;;;;;;;;;;5077559;28;20410;-89
2021/09/24 05:53:37;;;;;;;16.02;13.07;;;;;;;;;;5075318;28;20400;-90
2021/09/24 05:56:04;;;;;;;16.48;12.98;;;;;;;;;;5074405;28;20392;-90
2021/09/24 05:58:31;;;;;;;17.80;13.43;;;;;;;;;;5075572;28;20406;-91
2021/09/24 06:00:58;;;;;;;19.17;14.50;;;;;;;;;;5074575;28;20642;-91
2021/09/24 06:03:25;;;;;;;17.73;13.50;;;;;;;;;;5077131;28;20477;-90
2021/09/24 06:05:54;;;;;;;21.05;14.05;;;;;;;;;;5075300;28;20406;-90
2021/09/24 06:08:21;;;;;;;18.98;14.43;;;;;;;;;;5075347;28;20417;-91
2021/09/24 06:10:47;;;;;;;18.33;15.07;;;;;;;;;;5078634;28;20408;-90
2021/09/24 06:13:14;;;;;;;18.52;14.95;;;;;;;;;;5080065;28;20883;-90
2021/09/24 06:15:42;;;;;;;19.40;15.20;;;;;;;;;;5084650;28;20383;-91
2021/09/24 06:18:09;;;;;;;20.90;14.97;;;;;;;;;;5103737;28;20403;-90
2021/09/24 06:20:36;;;;;;;25.15;15.65;;;;;;;;;;5088335;28;20408;-91
2021/09/24 06:23:04;;;;;;;23.08;15.90;;;;;;;;;;5081413;28;20416;-90
2021/09/24 06:25:31;;;;;;;25.55;16.50;;;;;;;;;;5074127;28;20419;-91
2021/09/24 06:27:59;;;;;;;20.70;15.45;;;;;;;;;;5078779;28;20408;-92
2021/09/24 06:30:27;;;;;;;21.42;15.38;;;;;;;;;;5074287;28;21161;-92
2021/09/24 06:32:54;;;;;;;21.02;16.13;;;;;;;;;;5076839;28;20400;-93
2021/09/24 06:35:21;;;;;;;20.67;16.03;;;;;;;;;;5074408;28;20410;-91
2021/09/24 06:37:48;;;;;;;21.13;16.37;;;;;;;;;;5074074;28;20474;-90
2021/09/24 06:40:17;;;;;;;22.58;16.50;;;;;;;;;;5078679;28;20417;-91
2021/09/24 06:42:44;;;;;;;23.45;17.02;;;;;;;;;;5077140;28;20756;-92
2021/09/24 06:45:12;;;;;;;22.58;17.13;;;;;;;;;;5075250;28;20906;-92
2021/09/24 06:47:40;;;;;;;22.73;17.30;;;;;;;;;;5076861;28;20877;-92
2021/09/24 06:50:07;;;;;;;23.35;17.90;;;;;;;;;;5074112;28;20436;-91
2021/09/24 06:52:34;;;;;;;27.63;20.00;;;;;;;;;;5073517;28;20394;-91
2021/09/24 06:55:02;;;;;;;25.42;19.10;;;;;;;;;;5077075;28;20400;-91
2021/09/24 06:57:30;;;;;;;26.08;20.50;;;;;;;;;;5074830;28;20402;-92
2021/09/24 06:59:57;;;;;;;29.43;21.53;;;;;;;;;;5077783;28;20779;-92
2021/09/24 07:02:24;;;;;;;30.98;22.13;;;;;;;;;;5076281;28;20405;-92
2021/09/24 07:04:51;;;;;;;34.35;23.40;;;;;;;;;;5072583;28;20417;-92
2021/09/24 07:07:18;;;;;;;34.55;23.58;;;;;;;;;;5073586;28;20396;-92
2021/09/24 07:09:45;;;;;;;30.85;22.90;;;;;;;;;;5074867;28;20912;-91
2021/09/24 07:12:12;;;;;;;32.97;24.92;;;;;;;;;;5076803;28;20402;-92
2021/09/24 07:14:41;;;;;;;32.73;24.57;;;;;;;;;;5075398;28;20883;-91
2021/09/24 07:17:08;;;;;;;32.57;24.70;;;;;;;;;;5076006;28;20424;-91
2021/09/24 07:19:36;;;;;;;36.33;26.40;;;;;;;;;;5077443;28;20418;-91
2021/09/24 07:22:03;;;;;;;38.08;25.05;;;;;;;;;;5076156;28;20409;-91
2021/09/24 07:24:30;;;;;;;33.90;24.73;;;;;;;;;;5083978;28;20416;-91
2021/09/24 07:26:57;;;;;;;37.15;23.90;;;;;;;;;;5071904;28;20400;-92
2021/09/24 07:29:24;;;;;;;30.92;23.15;;;;;;;;;;5071258;28;20413;-91
2021/09/24 07:31:52;;;;;;;30.42;23.02;;;;;;;;;;5067457;28;20401;-91
2021/09/24 07:34:19;;;;;;;31.13;23.30;;;;;;;;;;5067637;28;20793;-91
2021/09/24 07:36:46;;;;;;;30.75;22.63;;;;;;;;;;5067457;28;20413;-91
2021/09/24 07:39:13;;;;;;;30.20;21.95;;;;;;;;;;5074035;28;20403;-91
2021/09/24 07:41:40;;;;;;;26.52;20.92;;;;;;;;;;5079625;28;20396;-91
2021/09/24 07:44:07;;;;;;;28.35;20.65;;;;;;;;;;5075516;28;20425;-92
2021/09/24 07:46:35;;;;;;;27.25;20.83;;;;;;;;;;5077720;28;20410;-91
2021/09/24 07:49:04;;;;;;;26.90;20.20;;;;;;;;;;5081275;28;20920;-93
2021/09/24 07:51:32;;;;;;;28.88;21.05;;;;;;;;;;5079356;28;20412;-93
2021/09/24 07:54:01;;;;;;;28.42;19.85;;;;;;;;;;5079954;28;20411;-92
2021/09/24 07:56:29;;;;;;;27.00;19.80;;;;;;;;;;5084066;28;20403;-92
2021/09/24 07:58:56;;;;;;;31.17;20.95;;;;;;;;;;5080062;28;20402;-92
2021/09/24 08:01:24;;;;;;;28.35;19.55;;;;;;;;;;5082656;28;20393;-92
2021/09/24 08:03:51;;;;;;;26.25;19.10;;;;;;;;;;5081442;28;20415;-92
2021/09/24 08:06:20;;;;;;;26.48;19.48;;;;;;;;;;5080462;28;20420;-93
2021/09/24 08:08:47;;;;;;;27.65;18.35;;;;;;;;;;5082206;28;20491;-93
2021/09/24 08:11:15;;;;;;;26.23;17.35;;;;;;;;;;5084126;28;20392;-92
2021/09/24 08:13:42;;;;;;;26.70;18.30;;;;;;;;;;5084704;28;20409;-92
2021/09/24 08:16:09;;;;;;;23.90;17.52;;;;;;;;;;5095386;28;20448;-91
2021/09/24 08:18:37;;;;;;;21.55;16.55;;;;;;;;;;5097930;28;20401;-92
2021/09/24 08:21:05;;;;;;;23.30;16.63;;;;;;;;;;5095733;28;20406;-92
2021/09/24 08:23:34;;;;;;;22.90;17.20;;;;;;;;;;5094843;28;20419;-92
2021/09/24 08:26:01;;;;;;;20.23;15.67;;;;;;;;;;5100257;28;20442;-90
2021/09/24 08:28:28;;;;;;;22.33;16.20;;;;;;;;;;5096696;28;20433;-91
2021/09/24 08:30:55;;;;;;;19.42;14.48;;;;;;;;;;5100273;28;20405;-92
2021/09/24 08:33:23;;;;;;;21.50;15.50;;;;;;;;;;5100084;28;20396;-92
2021/09/24 08:35:50;;;;;;;21.77;15.75;;;;;;;;;;5097017;28;20408;-92
2021/09/24 08:38:17;;;;;;;18.95;14.43;;;;;;;;;;5097900;28;20402;-92
2021/09/24 08:40:46;;;;;;;20.33;14.88;;;;;;;;;;5093637;28;20402;-92
2021/09/24 08:43:15;;;;;;;19.83;15.57;;;;;;;;;;5095023;28;20402;-92
2021/09/24 08:45:43;;;;;;;22.83;15.77;;;;;;;;;;5100483;28;20509;-92
2021/09/24 08:48:14;;;;;;;18.75;13.88;;;;;;;;;;5103247;28;20416;-92
2021/09/24 08:50:43;;;;;;;21.15;14.68;;;;;;;;;;5100944;28;20406;-91
2021/09/24 08:53:12;;;;;;;20.30;15.13;;;;;;;;;;5101997;28;20432;-92
2021/09/24 08:55:40;;;;;;;21.80;15.85;;;;;;;;;;5102271;28;20803;-92
2021/09/24 08:58:08;;;;;;;21.17;15.80;;;;;;;;;;5094907;28;20404;-92
2021/09/24 09:00:36;;;;;;;22.63;15.93;;;;;;;;;;5095737;28;20818;-92
2021/09/24 09:03:08;;;;;;;21.55;16.67;;;;;;;;;;5091285;28;20405;-91
2021/09/24 09:05:37;;;;;;;20.80;15.20;;;;;;;;;;5079989;28;20500;-92
2021/09/24 09:08:11;;;;;;;20.53;14.67;;;;;;;;;;5081415;28;20405;-91
2021/09/24 09:10:40;;;;;;;22.75;15.18;;;;;;;;;;5077196;28;20406;-91
2021/09/24 09:13:13;;;;;;;20.83;15.15;;;;;;;;;;5076668;28;20409;-92
2021/09/24 09:15:41;;;;;;;20.75;15.45;;;;;;;;;;5078951;28;20640;-90
2021/09/24 09:18:18;;;;;;;20.25;15.00;;;;;;;;;;5080075;28;20421;-92
2021/09/24 09:20:46;;;;;;;18.15;15.27;;;;;;;;;;5075282;28;20469;-91
2021/09/24 09:23:13;;;;;;;22.98;14.95;;;;;;;;;;5078975;28;20409;-92
2021/09/24 09:25:43;;;;;;;18.98;15.73;;;;;;;;;;5078342;28;20414;-92
2021/09/24 09:28:13;;;;;;;24.27;15.97;;;;;;;;;;5079661;28;20498;-91
2021/09/24 09:30:42;;;;;;;22.98;16.10;;;;;;;;;;5079642;28;20418;-92
2021/09/24 09:33:15;;;;;;;23.17;16.42;;;;;;;;;;5082109;28;20918;-89
2021/09/24 09:35:44;;;;;;;23.73;17.00;;;;;;;;;;5076954;28;21809;-75
2021/09/24 09:38:20;;;;;;;21.98;16.65;;;;;;;;;;5075520;28;20392;-93
2021/09/24 09:40:52;;;;;;;22.77;16.83;;;;;;;;;;5070426;28;20414;-88
2021/09/24 09:43:30;;;;;;;21.63;17.30;;;;;;;;;;5070642;28;20410;-94
2021/09/24 09:45:59;;;;;;;19.30;15.50;;;;;;;;;;5080188;28;20416;-93
2021/09/24 09:48:29;;;;;;;21.13;17.20;;;;;;;;;;5077956;28;20400;-92
2021/09/24 09:50:56;;;;;;;22.02;17.73;;;;;;;;;;5079243;28;20416;-91
2021/09/24 09:53:26;;;;;;;22.67;17.57;;;;;;;;;;5078538;28;20410;-90
2021/09/24 09:55:58;;;;;;;24.83;17.92;;;;;;;;;;5060085;28;20402;-92
2021/09/24 09:58:31;;;;;;;21.50;17.10;;;;;;;;;;5071415;28;20400;-92
2021/09/24 10:01:06;;;;;;;22.05;15.85;;;;;;;;;;5071624;28;20410;-93
2021/09/24 10:03:39;;;;;;;19.35;15.88;;;;;;;;;;5066164;28;20423;-92
2021/09/24 10:06:20;;;;;;;19.95;15.70;;;;;;;;;;5076289;28;21235;-91
2021/09/24 10:08:50;;;;;;;22.60;17.10;;;;;;;;;;5080470;28;20920;-91
2021/09/24 10:11:19;;;;;;;23.13;17.40;;;;;;;;;;5076330;28;20406;-92
2021/09/24 10:13:59;;;;;;;22.38;16.60;;;;;;;;;;5072363;28;20422;-92
2021/09/24 10:16:28;;;;;;;19.02;15.73;;;;;;;;;;5068229;28;21127;-80
2021/09/24 10:18:55;;;;;;;20.67;17.15;;;;;;;;;;5068792;28;20470;-91
2021/09/24 10:21:25;;;;;;;23.05;16.88;;;;;;;;;;5072066;28;20409;-90
2021/09/24 10:23:53;;;;;;;22.35;16.60;;;;;;;;;;5070948;28;20728;-79
2021/09/24 10:26:27;;;;;;;19.30;17.20;;;;;;;;;;5079875;28;20922;-92
2021/09/24 10:29:09;;;;;;;21.25;17.50;;;;;;;;;;5085106;28;20417;-92
2021/09/24 10:31:37;;;;;;;20.90;17.63;;;;;;;;;;5083961;28;20912;-91
2021/09/24 10:34:07;;;;;;;21.27;16.97;;;;;;;;;;5087735;28;21696;-92
2021/09/24 10:36:37;;;;;;;21.30;17.45;;;;;;;;;;5073894;28;20765;-91
2021/09/24 10:39:05;;;;;;;23.13;18.08;;;;;;;;;;5067980;28;20418;-92
2021/09/24 10:41:33;;;;;;;21.40;17.40;;;;;;;;;;5075306;28;20410;-92
2021/09/24 10:44:01;;;;;;;22.60;18.15;;;;;;;;;;5083521;28;20402;-91
2021/09/24 10:46:34;;;;;;;23.25;18.20;;;;;;;;;;5082739;28;20437;-91
2021/09/24 10:49:32;;;;;;;21.83;16.75;;;;;;;;;;5082163;28;20405;-79
2021/09/24 10:52:13;;;;;;;22.33;17.83;;;;;;;;;;5088753;28;20385;-86
2021/09/24 10:54:58;;;;;;;22.73;19.27;;;;;;;;;;5096147;28;20454;-87
2021/09/24 10:57:46;;;;;;;23.75;19.27;;;;;;;;;;5073349;28;20923;-87
2021/09/24 11:00:29;;;;;;;23.88;18.88;;;;;;;;;;5070567;28;20406;-87
2021/09/24 11:03:08;;;;;;;24.95;19.60;;;;;;;;;;5071418;28;21075;-87
2021/09/24 11:05:57;;;;;;;22.23;18.23;;;;;;;;;;5072706;28;20998;-93
2021/09/24 11:08:40;;;;;;;21.88;17.27;;;;;;;;;;5064990;28;20393;-92
2021/09/24 11:11:08;;;;;;;22.63;17.10;;;;;;;;;;5069315;28;20421;-92
2021/09/24 11:13:38;;;;;;;22.27;17.05;;;;;;;;;;5069612;28;20411;-92
2021/09/24 11:16:09;;;;;;;21.13;17.05;;;;;;;;;;5070129;28;20923;-92
2021/09/24 11:18:48;;;;;;;22.17;17.10;;;;;;;;;;5065649;28;20406;-90
2021/09/24 11:21:15;;;;;;;18.95;16.08;;;;;;;;;;5080220;28;20423;-90
2021/09/24 11:23:43;;;;;;;21.60;18.60;;;;;;;;;;5086784;28;20409;-92
2021/09/24 11:26:16;;;;;;;23.80;19.90;;;;;;;;;;5088797;28;20416;-91
2021/09/24 11:28:46;;;;;;;21.40;17.33;;;;;;;;;;5082349;28;20409;-92
2021/09/24 11:31:15;;;;;;;21.92;17.50;;;;;;;;;;5077093;28;20416;-92
2021/09/24 11:33:46;;;;;;;20.52;17.75;;;;;;;;;;5068183;28;20428;-91
2021/09/24 11:36:14;;;;;;;22.45;17.52;;;;;;;;;;5077955;28;20400;-91
2021/09/24 11:38:42;;;;;;;21.45;17.20;;;;;;;;;;5071874;28;20461;-88
2021/09/24 11:41:13;;;;;;;22.23;17.65;;;;;;;;;;5070388;28;20424;-90
2021/09/24 11:43:40;;;;;;;20.38;15.88;;;;;;;;;;5071669;28;20886;-91
2021/09/24 11:46:15;;;;;;;17.95;15.48;;;;;;;;;;5073123;28;20409;-91
2021/09/24 11:48:42;;;;;;;16.50;14.70;;;;;;;;;;5077640;28;20419;-91
2021/09/24 11:51:11;;;;;;;20.02;16.65;;;;;;;;;;5083992;28;20906;-90
2021/09/24 11:53:51;;;;;;;18.27;15.32;;;;;;;;;;5072861;28;20406;-91
2021/09/24 11:56:32;;;;;;;19.40;16.33;;;;;;;;;;5072388;28;20608;-91
2021/09/24 11:59:04;;;;;;;19.80;16.58;;;;;;;;;;5082890;28;20408;-90
2021/09/24 12:01:32;;;;;;;21.13;17.90;;;;;;;;;;5077173;28;20407;-91
2021/09/24 12:03:59;;;;;;;22.27;17.77;;;;;;;;;;5082582;28;20416;-90
2021/09/24 12:06:29;;;;;;;19.65;16.77;;;;;;;;;;5080714;28;20415;-91
2021/09/24 12:09:08;;;;;;;22.05;17.95;;;;;;;;;;5077789;28;20869;-91
2021/09/24 12:11:45;;;;;;;19.48;16.88;;;;;;;;;;5073944;28;20418;-89
2021/09/24 12:14:14;;;;;;;23.00;17.90;;;;;;;;;;5076642;28;20452;-92
2021/09/24 12:19:27;;;;;;;20.02;17.83;;;;;;;;;;5068226;28;20484;-92
2021/09/24 12:21:58;;;;;;;21.23;17.67;;;;;;;;;;5080866;28;20817;-92
2021/09/24 12:24:28;;;;;;;20.35;17.92;;;;;;;;;;5078879;28;20829;-93
2021/09/24 12:27:05;;;;;;;19.63;16.83;;;;;;;;;;5083758;28;20973;-92
2021/09/24 12:29:33;;;;;;;18.35;16.38;;;;;;;;;;5080210;28;20418;-92
2021/09/24 12:32:06;;;;;;;17.80;15.25;;;;;;;;;;5063086;28;20418;-95
2021/09/24 12:34:43;;;;;;;16.17;14.18;;;;;;;;;;5074493;28;20410;-92
2021/09/24 12:37:11;;;;;;;15.73;13.32;;;;;;;;;;5066111;28;20427;-92
2021/09/24 12:39:42;;;;;;;15.40;13.77;;;;;;;;;;5075876;28;20493;-92
2021/09/24 12:42:11;;;;;;;16.23;14.53;;;;;;;;;;5086222;28;20883;-92
2021/09/24 12:44:50;;;;;;;15.35;13.75;;;;;;;;;;5084901;28;20805;-92
2021/09/24 12:47:23;;;;;;;15.97;14.10;;;;;;;;;;5075679;28;20406;-92
2021/09/24 12:49:50;;;;;;;16.95;14.50;;;;;;;;;;5076855;28;20416;-93
2021/09/24 12:52:18;;;;;;;16.95;14.60;;;;;;;;;;5070702;28;20768;-94
2021/09/24 12:54:46;;;;;;;18.38;16.05;;;;;;;;;;5074041;28;20400;-93
2021/09/24 12:57:16;;;;;;;18.83;15.25;;;;;;;;;;5076144;28;20425;-92
2021/09/24 12:59:47;;;;;;;17.75;14.88;;;;;;;;;;5067439;28;20404;-93
2021/09/24 13:02:15;;;;;;;22.45;16.48;;;;;;;;;;5077871;28;20414;-91
2021/09/24 13:04:50;;;;;;;17.05;14.77;;;;;;;;;;5075650;28;20414;-93
2021/09/24 13:07:21;;;;;;;17.30;15.27;;;;;;;;;;5072572;28;21087;-93
2021/09/24 13:09:49;;;;;;;16.77;14.00;;;;;;;;;;5070814;28;20406;-93
2021/09/24 13:12:16;;;;;;;16.35;13.85;;;;;;;;;;5081836;28;20434;-93
2021/09/24 13:14:44;;;;;;;15.88;14.05;;;;;;;;;;5079725;28;20876;-93
2021/09/24 13:17:11;;;;;;;18.55;16.08;;;;;;;;;;5072244;28;20811;-79
2021/09/24 13:19:38;;;;;;;17.40;13.93;;;;;;;;;;5070417;28;20398;-93
2021/09/24 13:22:07;;;;;;;16.57;14.57;;;;;;;;;;5076520;28;20417;-93
2021/09/24 13:24:34;;;;;;;17.23;15.30;;;;;;;;;;5078002;28;20433;-93
2021/09/24 13:27:01;;;;;;;17.50;14.10;;;;;;;;;;5071660;28;20418;-93
2021/09/24 13:29:28;;;;;;;18.38;13.73;;;;;;;;;;5073913;28;20400;-91
2021/09/24 13:32:24;;;;;;;15.98;14.27;;;;;;;;;;5072770;28;20444;-93
2021/09/24 13:34:51;;;;;;;16.73;14.48;;;;;;;;;;5074611;28;20658;-92
2021/09/24 13:37:20;;;;;;;15.30;13.70;;;;;;;;;;5074875;28;20891;-92
2021/09/24 13:39:47;;;;;;;14.63;13.13;;;;;;;;;;5076854;28;20940;-94
2021/09/24 13:42:14;;;;;;;15.60;13.15;;;;;;;;;;5076569;28;20410;-92
2021/09/24 13:44:41;;;;;;;14.38;12.98;;;;;;;;;;5074693;28;20406;-92
2021/09/24 13:47:08;;;;;;;17.67;15.75;;;;;;;;;;5079072;28;20420;-93
2021/09/24 13:49:35;;;;;;;14.73;13.13;;;;;;;;;;5070833;28;20827;-93
2021/09/24 13:52:02;;;;;;;15.40;13.68;;;;;;;;;;5072015;28;20408;-92
2021/09/24 13:54:31;;;;;;;15.97;12.33;;;;;;;;;;5077454;28;20404;-92
2021/09/24 13:56:58;;;;;;;18.63;14.60;;;;;;;;;;5070833;28;20401;-93
2021/09/24 13:59:25;;;;;;;15.55;13.95;;;;;;;;;;5067915;28;20408;-92
2021/09/24 14:01:53;;;;;;;16.63;14.88;;;;;;;;;;5068083;28;20414;-93
2021/09/24 14:04:19;;;;;;;16.13;14.33;;;;;;;;;;5070203;28;20450;-93
2021/09/24 14:06:46;;;;;;;15.70;14.10;;;;;;;;;;5072590;28;20428;-93
2021/09/24 14:09:14;;;;;;;14.93;13.40;;;;;;;;;;5071223;28;20447;-92
2021/09/24 14:11:42;;;;;;;14.27;12.82;;;;;;;;;;5072339;28;20753;-93
2021/09/24 14:14:10;;;;;;;15.98;14.27;;;;;;;;;;5073601;28;20429;-92
2021/09/24 14:16:37;;;;;;;16.33;13.90;;;;;;;;;;5078940;28;20632;-92
2021/09/24 14:19:04;;;;;;;14.40;13.00;;;;;;;;;;5070929;28;20755;-92
2021/09/24 14:21:32;;;;;;;14.23;12.23;;;;;;;;;;5071050;28;20420;-92
2021/09/24 14:23:59;;;;;;;15.32;12.52;;;;;;;;;;5075258;28;20407;-92
2021/09/24 14:26:26;;;;;;;12.65;11.18;;;;;;;;;;5075157;28;20408;-93
2021/09/24 14:28:55;;;;;;;12.90;11.60;;;;;;;;;;5077427;28;20399;-92
2021/09/24 14:31:22;;;;;;;14.05;11.90;;;;;;;;;;5078772;28;20701;-92